Terminal Aerodrome Forecast
Issued by NWS

Home | Current Version | Previous Version | Graphics & Text | Print | Product List | Glossary On
Versions: 1 2 3 4 5 6 7 8 9 10 11 12 13 14 15 16 17
000
FTUS43 KTOP 162200 AAA
TAFMHK
TAF AMD
KMHK 162208Z 1622/1718 25017G27KT P6SM BKN120
     FM162230 32015G27KT P6SM BKN100
     FM170000 31013KT P6SM BKN100
     FM170500 36007KT P6SM BKN120=

USA.gov is the U.S. government's official web portal to all federal, state and local government web resources and services.